Alpine Village, CA

6:35 PM PST on February 12, 2016 (GMT -0800)
Job's Peak Ranch | | Change Station
CLOSE
Current Station
Personal Weather Station
Location: Gardnerville, NV
Elevation: 5374 ft
Nearby Weather Stations

Elev 5374 ft 38.89 °N, 119.84 °W | Updated 8 seconds ago

Partly Cloudy
Partly Cloudy
46.4 °F
Feels Like 46 °F
N
0.0
Wind Variable Wind from SSW
Gusts 0.0 mph

Today
High -- | Low -- °F
--% Chance of Precip.
Yesterday
High -- | Low -- °F
Precip. -- in
Pressure 30.32 in
Visibility 10.0 miles
Clouds Clear
Windchill 46 °F
Dew Point 27 °F
Humidity 46%
Rainfall 0.00 in
Snow Depth Not available.
6:54 AM 5:33 PM
Waxing Crescent, 26% visible
METAR KTVL 130153Z AUTO 00000KT 10SM CLR 04/M02 A3031 RMK AO2 SLP268 T00391017
Pressure 30.32 in
Visibility 10.0 miles
Clouds Clear
Windchill 46 °F
Dew Point 27 °F
Humidity 46%
Rainfall 0.00 in
Snow Depth Not available.
6:54 AM 5:33 PM
Waxing Crescent, 26% visible
METAR KTVL 130153Z AUTO 00000KT 10SM CLR 04/M02 A3031 RMK AO2 SLP268 T00391017

10-Day Weather Forecast

Almanac

Astronomy

Feb. 12, 2016 Rise Set
Actual Time
Civil Twilight
Nautical Twilight
Astronomical Twilight
Moon
Length of Visible Light
Length of Day
Tomorrow will be .
, % of the Moon is Illuminated

Today's Extremes

State Highs State Lows

Community

WunderPhotos

Upload Photos

1,892,464 photos uploaded!

WunderBlog® & News

Nearby

Air Quality

  Air Quality AQ Index Pollutant
Not available.

Snow Depth

Station Depth Elevation

Earthquake Activity

City Distance Mag. Time & Date
Minimum magnitude displayed is 2.5.

Coastal Water Temperatures

Place Temperature

Stations

Nearby Weather Stations

Station Location Temp. Windchill Dew Point Humidity Wind Precip. Elev Updated Type
                   

Watches & Warnings

There are currently no watches in effect.